sensor_id;sensor_type;location;lat;lon;timestamp;temperature;humidity
40534;DHT22;26233;51.894;10.192;2023-09-07T00:01:33;21.10;37.80
40534;DHT22;26233;51.894;10.192;2023-09-07T00:04:00;21.00;37.90
40534;DHT22;26233;51.894;10.192;2023-09-07T00:06:28;21.00;38.00
40534;DHT22;26233;51.894;10.192;2023-09-07T00:08:55;20.90;38.10
40534;DHT22;26233;51.894;10.192;2023-09-07T00:11:24;20.90;38.10
40534;DHT22;26233;51.894;10.192;2023-09-07T00:13:51;20.90;38.20
40534;DHT22;26233;51.894;10.192;2023-09-07T00:16:19;20.90;38.20
40534;DHT22;26233;51.894;10.192;2023-09-07T00:18:46;20.80;38.30
40534;DHT22;26233;51.894;10.192;2023-09-07T00:21:13;20.80;39.00
40534;DHT22;26233;51.894;10.192;2023-09-07T00:23:42;20.80;38.50
40534;DHT22;26233;51.894;10.192;2023-09-07T00:26:09;20.70;38.50
40534;DHT22;26233;51.894;10.192;2023-09-07T00:28:39;20.70;38.60
40534;DHT22;26233;51.894;10.192;2023-09-07T00:31:06;20.70;38.50
40534;DHT22;26233;51.894;10.192;2023-09-07T00:33:33;20.70;38.60
40534;DHT22;26233;51.894;10.192;2023-09-07T00:36:01;20.60;38.60
40534;DHT22;26233;51.894;10.192;2023-09-07T00:38:29;20.60;38.60
40534;DHT22;26233;51.894;10.192;2023-09-07T00:40:56;20.60;38.70
40534;DHT22;26233;51.894;10.192;2023-09-07T00:43:23;20.50;39.30
40534;DHT22;26233;51.894;10.192;2023-09-07T00:45:52;20.50;38.90
40534;DHT22;26233;51.894;10.192;2023-09-07T00:48:19;20.50;39.00
40534;DHT22;26233;51.894;10.192;2023-09-07T00:50:46;20.50;39.00
40534;DHT22;26233;51.894;10.192;2023-09-07T00:53:32;20.40;39.00
40534;DHT22;26233;51.894;10.192;2023-09-07T00:56:17;20.40;39.50
40534;DHT22;26233;51.894;10.192;2023-09-07T01:02:08;20.30;39.20
40534;DHT22;26233;51.894;10.192;2023-09-07T01:04:35;20.30;39.10
40534;DHT22;26233;51.894;10.192;2023-09-07T01:07:08;20.20;39.00
40534;DHT22;26233;51.894;10.192;2023-09-07T01:09:40;20.20;39.30
40534;DHT22;26233;51.894;10.192;2023-09-07T01:12:14;20.20;39.20
40534;DHT22;26233;51.894;10.192;2023-09-07T01:14:41;20.20;39.60
40534;DHT22;26233;51.894;10.192;2023-09-07T01:17:10;20.20;39.40
40534;DHT22;26233;51.894;10.192;2023-09-07T01:19:39;20.10;39.50
40534;DHT22;26233;51.894;10.192;2023-09-07T01:22:08;20.10;39.60
40534;DHT22;26233;51.894;10.192;2023-09-07T01:24:39;20.10;39.60
40534;DHT22;26233;51.894;10.192;2023-09-07T01:27:07;20.10;39.70
40534;DHT22;26233;51.894;10.192;2023-09-07T01:29:34;20.10;39.70
40534;DHT22;26233;51.894;10.192;2023-09-07T01:32:03;20.10;39.70
40534;DHT22;26233;51.894;10.192;2023-09-07T01:34:30;20.00;39.70
40534;DHT22;26233;51.894;10.192;2023-09-07T01:36:58;20.00;39.80
40534;DHT22;26233;51.894;10.192;2023-09-07T01:39:26;20.00;40.00
40534;DHT22;26233;51.894;10.192;2023-09-07T01:41:53;20.00;40.10
40534;DHT22;26233;51.894;10.192;2023-09-07T01:44:22;20.00;40.10
40534;DHT22;26233;51.894;10.192;2023-09-07T01:46:49;20.00;40.10
40534;DHT22;26233;51.894;10.192;2023-09-07T01:49:16;20.00;40.10
40534;DHT22;26233;51.894;10.192;2023-09-07T01:51:43;20.00;40.00
40534;DHT22;26233;51.894;10.192;2023-09-07T01:54:09;20.00;39.90
40534;DHT22;26233;51.894;10.192;2023-09-07T01:56:39;19.90;39.90
40534;DHT22;26233;51.894;10.192;2023-09-07T01:59:07;19.90;40.10
40534;DHT22;26233;51.894;10.192;2023-09-07T02:01:34;19.90;40.10
40534;DHT22;26233;51.894;10.192;2023-09-07T02:04:03;19.90;40.30
40534;DHT22;26233;51.894;10.192;2023-09-07T02:06:31;19.80;40.30
40534;DHT22;26233;51.894;10.192;2023-09-07T02:08:58;19.90;40.50
40534;DHT22;26233;51.894;10.192;2023-09-07T02:11:25;19.90;40.50
40534;DHT22;26233;51.894;10.192;2023-09-07T02:13:53;19.90;40.50
40534;DHT22;26233;51.894;10.192;2023-09-07T02:16:20;19.90;40.50
40534;DHT22;26233;51.894;10.192;2023-09-07T02:18:49;20.00;40.50
40534;DHT22;26233;51.894;10.192;2023-09-07T02:21:17;19.90;40.40
40534;DHT22;26233;51.894;10.192;2023-09-07T02:23:44;19.90;40.40
40534;DHT22;26233;51.894;10.192;2023-09-07T02:26:11;19.90;40.40
40534;DHT22;26233;51.894;10.192;2023-09-07T02:28:38;19.90;40.50
40534;DHT22;26233;51.894;10.192;2023-09-07T02:31:06;19.80;40.50
40534;DHT22;26233;51.894;10.192;2023-09-07T02:33:33;19.80;40.50
40534;DHT22;26233;51.894;10.192;2023-09-07T02:36:01;19.70;40.50
40534;DHT22;26233;51.894;10.192;2023-09-07T02:38:28;19.70;40.50
40534;DHT22;26233;51.894;10.192;2023-09-07T02:40:56;19.70;40.50
40534;DHT22;26233;51.894;10.192;2023-09-07T02:43:26;19.60;40.60
40534;DHT22;26233;51.894;10.192;2023-09-07T02:45:53;19.60;40.80
40534;DHT22;26233;51.894;10.192;2023-09-07T02:48:22;19.60;40.80
40534;DHT22;26233;51.894;10.192;2023-09-07T02:50:49;19.50;40.70
40534;DHT22;26233;51.894;10.192;2023-09-07T02:53:16;19.50;40.80
40534;DHT22;26233;51.894;10.192;2023-09-07T02:55:43;19.40;40.70
40534;DHT22;26233;51.894;10.192;2023-09-07T02:58:10;19.40;40.80
40534;DHT22;26233;51.894;10.192;2023-09-07T03:00:41;19.40;40.90
40534;DHT22;26233;51.894;10.192;2023-09-07T03:03:10;19.40;41.00
40534;DHT22;26233;51.894;10.192;2023-09-07T03:05:39;19.40;40.90
40534;DHT22;26233;51.894;10.192;2023-09-07T03:08:06;19.30;40.90
40534;DHT22;26233;51.894;10.192;2023-09-07T03:10:34;19.30;41.00
40534;DHT22;26233;51.894;10.192;2023-09-07T03:13:01;19.30;41.00
40534;DHT22;26233;51.894;10.192;2023-09-07T03:15:31;19.30;41.00
40534;DHT22;26233;51.894;10.192;2023-09-07T03:17:58;19.20;40.90
40534;DHT22;26233;51.894;10.192;2023-09-07T03:20:26;19.20;41.10
40534;DHT22;26233;51.894;10.192;2023-09-07T03:22:54;19.10;41.20
40534;DHT22;26233;51.894;10.192;2023-09-07T03:25:22;19.10;41.30
40534;DHT22;26233;51.894;10.192;2023-09-07T03:27:50;19.10;41.30
40534;DHT22;26233;51.894;10.192;2023-09-07T03:30:17;19.10;41.90
40534;DHT22;26233;51.894;10.192;2023-09-07T03:32:44;19.10;41.40
40534;DHT22;26233;51.894;10.192;2023-09-07T03:35:11;19.10;41.50
40534;DHT22;26233;51.894;10.192;2023-09-07T03:37:38;19.10;41.50
40534;DHT22;26233;51.894;10.192;2023-09-07T03:40:08;19.10;41.50
40534;DHT22;26233;51.894;10.192;2023-09-07T03:42:35;19.10;41.50
40534;DHT22;26233;51.894;10.192;2023-09-07T03:45:03;19.10;41.50
40534;DHT22;26233;51.894;10.192;2023-09-07T03:47:31;19.00;41.50
40534;DHT22;26233;51.894;10.192;2023-09-07T03:49:59;19.00;41.50
40534;DHT22;26233;51.894;10.192;2023-09-07T03:52:26;19.00;41.50
40534;DHT22;26233;51.894;10.192;2023-09-07T03:54:54;19.00;41.50
40534;DHT22;26233;51.894;10.192;2023-09-07T03:57:23;18.90;41.50
40534;DHT22;26233;51.894;10.192;2023-09-07T03:59:50;18.90;41.50
40534;DHT22;26233;51.894;10.192;2023-09-07T04:02:17;18.90;41.60
40534;DHT22;26233;51.894;10.192;2023-09-07T04:04:48;18.90;41.70
40534;DHT22;26233;51.894;10.192;2023-09-07T04:07:16;18.90;42.40
40534;DHT22;26233;51.894;10.192;2023-09-07T04:09:44;18.90;41.70
40534;DHT22;26233;51.894;10.192;2023-09-07T04:12:11;18.90;41.70
40534;DHT22;26233;51.894;10.192;2023-09-07T04:14:40;18.90;41.70
40534;DHT22;26233;51.894;10.192;2023-09-07T04:17:08;18.90;41.70
40534;DHT22;26233;51.894;10.192;2023-09-07T04:19:35;18.90;41.80
40534;DHT22;26233;51.894;10.192;2023-09-07T04:22:02;18.90;41.70
40534;DHT22;26233;51.894;10.192;2023-09-07T04:24:29;18.80;41.70
40534;DHT22;26233;51.894;10.192;2023-09-07T04:26:58;18.80;41.70
40534;DHT22;26233;51.894;10.192;2023-09-07T04:29:26;18.80;41.90
40534;DHT22;26233;51.894;10.192;2023-09-07T04:31:54;18.80;41.90
40534;DHT22;26233;51.894;10.192;2023-09-07T04:34:22;18.80;42.10
40534;DHT22;26233;51.894;10.192;2023-09-07T04:36:49;18.80;42.10
40534;DHT22;26233;51.894;10.192;2023-09-07T04:39:16;18.80;42.10
40534;DHT22;26233;51.894;10.192;2023-09-07T04:41:43;18.80;42.10
40534;DHT22;26233;51.894;10.192;2023-09-07T04:44:10;18.70;42.10
40534;DHT22;26233;51.894;10.192;2023-09-07T04:46:37;18.80;42.20
40534;DHT22;26233;51.894;10.192;2023-09-07T04:49:06;18.80;42.30
40534;DHT22;26233;51.894;10.192;2023-09-07T04:51:33;18.80;42.30
40534;DHT22;26233;51.894;10.192;2023-09-07T04:54:00;18.80;42.20
40534;DHT22;26233;51.894;10.192;2023-09-07T04:56:27;18.70;42.20
40534;DHT22;26233;51.894;10.192;2023-09-07T04:58:54;18.70;42.30
40534;DHT22;26233;51.894;10.192;2023-09-07T05:01:21;18.70;42.30
40534;DHT22;26233;51.894;10.192;2023-09-07T05:03:48;18.70;42.40
40534;DHT22;26233;51.894;10.192;2023-09-07T05:06:17;18.70;42.50
40534;DHT22;26233;51.894;10.192;2023-09-07T05:08:45;18.70;42.50
40534;DHT22;26233;51.894;10.192;2023-09-07T05:11:11;18.70;42.50
40534;DHT22;26233;51.894;10.192;2023-09-07T05:13:39;18.80;42.70
40534;DHT22;26233;51.894;10.192;2023-09-07T05:16:06;18.80;42.70
40534;DHT22;26233;51.894;10.192;2023-09-07T05:18:33;18.70;42.70
40534;DHT22;26233;51.894;10.192;2023-09-07T05:21:00;18.80;42.70
40534;DHT22;26233;51.894;10.192;2023-09-07T05:23:29;18.70;42.60
40534;DHT22;26233;51.894;10.192;2023-09-07T05:25:56;18.80;42.90
40534;DHT22;26233;51.894;10.192;2023-09-07T05:28:23;18.80;42.80
40534;DHT22;26233;51.894;10.192;2023-09-07T05:30:50;18.80;42.80
40534;DHT22;26233;51.894;10.192;2023-09-07T05:33:20;18.80;42.90
40534;DHT22;26233;51.894;10.192;2023-09-07T05:35:49;18.80;43.00
40534;DHT22;26233;51.894;10.192;2023-09-07T05:38:16;18.80;42.90
40534;DHT22;26233;51.894;10.192;2023-09-07T05:40:44;18.80;43.10
40534;DHT22;26233;51.894;10.192;2023-09-07T05:43:15;18.80;43.50
40534;DHT22;26233;51.894;10.192;2023-09-07T05:45:42;19.00;44.10
40534;DHT22;26233;51.894;10.192;2023-09-07T05:48:09;19.20;44.70
40534;DHT22;26233;51.894;10.192;2023-09-07T05:50:37;19.50;45.20
40534;DHT22;26233;51.894;10.192;2023-09-07T05:53:05;19.90;45.10
40534;DHT22;26233;51.894;10.192;2023-09-07T05:55:32;20.10;44.80
40534;DHT22;26233;51.894;10.192;2023-09-07T05:58:04;20.50;45.00
40534;DHT22;26233;51.894;10.192;2023-09-07T06:00:33;20.80;45.40
40534;DHT22;26233;51.894;10.192;2023-09-07T06:03:00;21.30;46.00
40534;DHT22;26233;51.894;10.192;2023-09-07T06:05:29;21.80;46.40
40534;DHT22;26233;51.894;10.192;2023-09-07T06:07:56;22.40;46.60
40534;DHT22;26233;51.894;10.192;2023-09-07T06:10:23;23.00;46.80
40534;DHT22;26233;51.894;10.192;2023-09-07T06:12:50;23.60;46.80
40534;DHT22;26233;51.894;10.192;2023-09-07T06:15:18;24.20;46.70
40534;DHT22;26233;51.894;10.192;2023-09-07T06:17:45;24.90;46.60
40534;DHT22;26233;51.894;10.192;2023-09-07T06:20:12;25.50;46.40
40534;DHT22;26233;51.894;10.192;2023-09-07T06:22:40;26.10;46.00
40534;DHT22;26233;51.894;10.192;2023-09-07T06:25:07;26.80;45.60
40534;DHT22;26233;51.894;10.192;2023-09-07T06:27:35;27.40;44.90
40534;DHT22;26233;51.894;10.192;2023-09-07T06:30:04;27.90;44.20
40534;DHT22;26233;51.894;10.192;2023-09-07T06:32:33;28.50;43.90
40534;DHT22;26233;51.894;10.192;2023-09-07T06:35:00;29.00;43.50
40534;DHT22;26233;51.894;10.192;2023-09-07T06:37:27;29.50;43.10
40534;DHT22;26233;51.894;10.192;2023-09-07T06:39:55;30.00;42.50
40534;DHT22;26233;51.894;10.192;2023-09-07T06:42:22;30.40;41.80
40534;DHT22;26233;51.894;10.192;2023-09-07T06:44:49;30.60;40.90
40534;DHT22;26233;51.894;10.192;2023-09-07T06:47:17;30.80;40.20
40534;DHT22;26233;51.894;10.192;2023-09-07T06:49:46;30.80;39.30
40534;DHT22;26233;51.894;10.192;2023-09-07T06:52:15;30.50;38.50
40534;DHT22;26233;51.894;10.192;2023-09-07T06:54:42;30.20;38.00
40534;DHT22;26233;51.894;10.192;2023-09-07T06:57:09;29.90;38.00
40534;DHT22;26233;51.894;10.192;2023-09-07T06:59:36;29.60;38.70
40534;DHT22;26233;51.894;10.192;2023-09-07T07:02:03;29.60;39.60
40534;DHT22;26233;51.894;10.192;2023-09-07T07:04:31;29.70;40.20
40534;DHT22;26233;51.894;10.192;2023-09-07T07:06:59;30.00;40.70
40534;DHT22;26233;51.894;10.192;2023-09-07T07:09:29;30.40;40.90
40534;DHT22;26233;51.894;10.192;2023-09-07T07:11:58;30.90;41.00
40534;DHT22;26233;51.894;10.192;2023-09-07T07:14:28;31.40;40.90
40534;DHT22;26233;51.894;10.192;2023-09-07T07:16:55;31.90;40.30
40534;DHT22;26233;51.894;10.192;2023-09-07T07:19:22;32.50;40.20
40534;DHT22;26233;51.894;10.192;2023-09-07T07:21:50;33.00;39.80
40534;DHT22;26233;51.894;10.192;2023-09-07T07:24:18;33.50;39.20
40534;DHT22;26233;51.894;10.192;2023-09-07T07:26:46;34.00;38.80
40534;DHT22;26233;51.894;10.192;2023-09-07T07:29:13;34.40;38.30
40534;DHT22;26233;51.894;10.192;2023-09-07T07:31:43;34.80;37.90
40534;DHT22;26233;51.894;10.192;2023-09-07T07:34:10;35.20;37.50
40534;DHT22;26233;51.894;10.192;2023-09-07T07:36:37;35.50;36.80
40534;DHT22;26233;51.894;10.192;2023-09-07T07:39:05;35.90;36.50
40534;DHT22;26233;51.894;10.192;2023-09-07T07:41:34;36.10;35.90
40534;DHT22;26233;51.894;10.192;2023-09-07T07:44:01;36.40;35.50
40534;DHT22;26233;51.894;10.192;2023-09-07T07:46:28;36.70;35.20
40534;DHT22;26233;51.894;10.192;2023-09-07T07:48:55;36.90;34.80
40534;DHT22;26233;51.894;10.192;2023-09-07T07:51:22;37.10;34.40
40534;DHT22;26233;51.894;10.192;2023-09-07T07:53:49;37.40;34.00
40534;DHT22;26233;51.894;10.192;2023-09-07T07:56:17;37.70;33.70
40534;DHT22;26233;51.894;10.192;2023-09-07T07:58:47;37.90;33.40
40534;DHT22;26233;51.894;10.192;2023-09-07T08:01:16;38.00;32.70
40534;DHT22;26233;51.894;10.192;2023-09-07T08:03:43;38.20;32.90
40534;DHT22;26233;51.894;10.192;2023-09-07T08:06:14;38.30;32.50
40534;DHT22;26233;51.894;10.192;2023-09-07T08:08:41;38.40;32.50
40534;DHT22;26233;51.894;10.192;2023-09-07T08:11:08;38.60;32.00
40534;DHT22;26233;51.894;10.192;2023-09-07T08:13:35;38.80;31.90
40534;DHT22;26233;51.894;10.192;2023-09-07T08:16:04;38.90;31.50
40534;DHT22;26233;51.894;10.192;2023-09-07T08:18:33;39.10;31.20
40534;DHT22;26233;51.894;10.192;2023-09-07T08:21:00;39.20;31.10
40534;DHT22;26233;51.894;10.192;2023-09-07T08:23:28;39.30;30.60
40534;DHT22;26233;51.894;10.192;2023-09-07T08:25:55;39.40;31.10
40534;DHT22;26233;51.894;10.192;2023-09-07T08:28:22;39.50;30.90
40534;DHT22;26233;51.894;10.192;2023-09-07T08:30:51;39.60;30.90
40534;DHT22;26233;51.894;10.192;2023-09-07T08:33:21;39.60;30.50
40534;DHT22;26233;51.894;10.192;2023-09-07T08:35:54;39.70;30.20
40534;DHT22;26233;51.894;10.192;2023-09-07T08:38:23;39.70;30.00
40534;DHT22;26233;51.894;10.192;2023-09-07T08:40:54;39.70;30.00
40534;DHT22;26233;51.894;10.192;2023-09-07T08:43:22;39.70;29.70
40534;DHT22;26233;51.894;10.192;2023-09-07T08:45:53;39.80;29.50
40534;DHT22;26233;51.894;10.192;2023-09-07T08:48:27;39.90;29.50
40534;DHT22;26233;51.894;10.192;2023-09-07T08:50:56;40.00;29.30
40534;DHT22;26233;51.894;10.192;2023-09-07T08:53:23;40.00;29.20
40534;DHT22;26233;51.894;10.192;2023-09-07T08:55:51;40.00;29.10
40534;DHT22;26233;51.894;10.192;2023-09-07T08:58:18;40.00;29.00
40534;DHT22;26233;51.894;10.192;2023-09-07T09:00:46;40.00;29.00
40534;DHT22;26233;51.894;10.192;2023-09-07T09:03:14;40.00;28.90
40534;DHT22;26233;51.894;10.192;2023-09-07T09:05:43;40.00;28.90
40534;DHT22;26233;51.894;10.192;2023-09-07T09:08:12;40.00;28.80
40534;DHT22;26233;51.894;10.192;2023-09-07T09:10:39;40.10;28.70
40534;DHT22;26233;51.894;10.192;2023-09-07T09:13:07;40.10;28.50
40534;DHT22;26233;51.894;10.192;2023-09-07T09:15:34;40.10;28.40
40534;DHT22;26233;51.894;10.192;2023-09-07T09:18:10;40.00;28.40
40534;DHT22;26233;51.894;10.192;2023-09-07T09:20:38;40.00;28.10
40534;DHT22;26233;51.894;10.192;2023-09-07T09:23:07;40.00;28.30
40534;DHT22;26233;51.894;10.192;2023-09-07T09:25:34;39.90;28.20
40534;DHT22;26233;51.894;10.192;2023-09-07T09:28:00;39.80;28.10
40534;DHT22;26233;51.894;10.192;2023-09-07T09:30:28;39.70;28.20
40534;DHT22;26233;51.894;10.192;2023-09-07T09:32:55;39.60;28.30
40534;DHT22;26233;51.894;10.192;2023-09-07T09:35:22;39.60;28.30
40534;DHT22;26233;51.894;10.192;2023-09-07T09:37:50;39.40;28.10
40534;DHT22;26233;51.894;10.192;2023-09-07T09:40:19;39.30;28.30
40534;DHT22;26233;51.894;10.192;2023-09-07T09:42:46;39.30;28.30
40534;DHT22;26233;51.894;10.192;2023-09-07T09:45:14;39.20;28.30
40534;DHT22;26233;51.894;10.192;2023-09-07T09:47:42;39.20;28.50
40534;DHT22;26233;51.894;10.192;2023-09-07T09:50:10;39.20;28.50
40534;DHT22;26233;51.894;10.192;2023-09-07T09:52:38;39.20;28.40
40534;DHT22;26233;51.894;10.192;2023-09-07T09:55:06;39.30;28.50
40534;DHT22;26233;51.894;10.192;2023-09-07T09:57:39;39.20;28.30
40534;DHT22;26233;51.894;10.192;2023-09-07T10:00:07;39.20;28.30
40534;DHT22;26233;51.894;10.192;2023-09-07T10:03:01;39.20;28.40
40534;DHT22;26233;51.894;10.192;2023-09-07T10:05:31;39.20;28.10
40534;DHT22;26233;51.894;10.192;2023-09-07T10:08:08;39.10;28.30
40534;DHT22;26233;51.894;10.192;2023-09-07T10:10:47;39.00;28.50
40534;DHT22;26233;51.894;10.192;2023-09-07T10:13:16;39.10;28.50
40534;DHT22;26233;51.894;10.192;2023-09-07T10:15:44;39.00;28.40
40534;DHT22;26233;51.894;10.192;2023-09-07T10:18:13;39.00;28.30
40534;DHT22;26233;51.894;10.192;2023-09-07T10:20:51;39.10;28.60
40534;DHT22;26233;51.894;10.192;2023-09-07T10:23:21;39.10;28.50
40534;DHT22;26233;51.894;10.192;2023-09-07T10:25:50;39.10;28.40
40534;DHT22;26233;51.894;10.192;2023-09-07T10:28:21;39.10;28.30
40534;DHT22;26233;51.894;10.192;2023-09-07T10:31:25;39.20;28.60
40534;DHT22;26233;51.894;10.192;2023-09-07T10:33:52;39.10;28.30
40534;DHT22;26233;51.894;10.192;2023-09-07T10:36:23;39.20;28.40
40534;DHT22;26233;51.894;10.192;2023-09-07T10:38:51;39.30;28.40
40534;DHT22;26233;51.894;10.192;2023-09-07T10:41:19;39.30;28.40
40534;DHT22;26233;51.894;10.192;2023-09-07T10:43:49;39.30;28.70
40534;DHT22;26233;51.894;10.192;2023-09-07T10:46:19;39.20;28.40
40534;DHT22;26233;51.894;10.192;2023-09-07T10:48:49;39.20;28.40
40534;DHT22;26233;51.894;10.192;2023-09-07T10:51:16;39.30;28.40
40534;DHT22;26233;51.894;10.192;2023-09-07T10:53:43;39.30;28.30
40534;DHT22;26233;51.894;10.192;2023-09-07T10:56:10;39.30;28.10
40534;DHT22;26233;51.894;10.192;2023-09-07T10:58:38;39.30;28.30
40534;DHT22;26233;51.894;10.192;2023-09-07T11:01:09;39.30;28.30
40534;DHT22;26233;51.894;10.192;2023-09-07T11:03:37;39.30;28.40
40534;DHT22;26233;51.894;10.192;2023-09-07T11:06:07;39.30;28.30
40534;DHT22;26233;51.894;10.192;2023-09-07T11:08:36;39.30;28.10
40534;DHT22;26233;51.894;10.192;2023-09-07T11:11:03;39.20;28.20
40534;DHT22;26233;51.894;10.192;2023-09-07T11:13:30;39.20;28.20
40534;DHT22;26233;51.894;10.192;2023-09-07T11:15:58;39.20;28.30
40534;DHT22;26233;51.894;10.192;2023-09-07T11:18:27;39.20;28.40
40534;DHT22;26233;51.894;10.192;2023-09-07T11:20:54;39.10;28.30
40534;DHT22;26233;51.894;10.192;2023-09-07T11:23:22;39.10;28.20
40534;DHT22;26233;51.894;10.192;2023-09-07T11:25:50;39.10;28.20
40534;DHT22;26233;51.894;10.192;2023-09-07T11:28:18;39.10;28.20
40534;DHT22;26233;51.894;10.192;2023-09-07T11:30:50;39.10;28.00
40534;DHT22;26233;51.894;10.192;2023-09-07T11:33:19;38.90;27.90
40534;DHT22;26233;51.894;10.192;2023-09-07T11:35:48;38.80;28.00
40534;DHT22;26233;51.894;10.192;2023-09-07T11:38:16;38.60;28.10
40534;DHT22;26233;51.894;10.192;2023-09-07T11:40:44;38.60;28.00
40534;DHT22;26233;51.894;10.192;2023-09-07T11:43:12;38.50;27.80
40534;DHT22;26233;51.894;10.192;2023-09-07T11:45:39;38.40;28.00
40534;DHT22;26233;51.894;10.192;2023-09-07T11:48:07;38.40;28.40
40534;DHT22;26233;51.894;10.192;2023-09-07T11:50:35;38.40;28.30
40534;DHT22;26233;51.894;10.192;2023-09-07T11:53:04;38.40;28.50
40534;DHT22;26233;51.894;10.192;2023-09-07T11:55:32;38.40;28.20
40534;DHT22;26233;51.894;10.192;2023-09-07T11:57:59;38.40;28.20
40534;DHT22;26233;51.894;10.192;2023-09-07T12:00:29;38.40;28.10
40534;DHT22;26233;51.894;10.192;2023-09-07T12:02:56;38.30;28.00
40534;DHT22;26233;51.894;10.192;2023-09-07T12:05:23;38.20;27.70
40534;DHT22;26233;51.894;10.192;2023-09-07T12:07:50;38.10;27.60
40534;DHT22;26233;51.894;10.192;2023-09-07T12:10:19;38.00;27.70
40534;DHT22;26233;51.894;10.192;2023-09-07T12:12:46;37.90;27.50
40534;DHT22;26233;51.894;10.192;2023-09-07T12:15:13;37.80;27.70
40534;DHT22;26233;51.894;10.192;2023-09-07T12:17:40;37.70;27.70
40534;DHT22;26233;51.894;10.192;2023-09-07T12:20:08;37.60;27.70
40534;DHT22;26233;51.894;10.192;2023-09-07T12:22:36;37.50;28.20
40534;DHT22;26233;51.894;10.192;2023-09-07T12:25:04;37.40;28.00
40534;DHT22;26233;51.894;10.192;2023-09-07T12:27:34;37.30;27.90
40534;DHT22;26233;51.894;10.192;2023-09-07T12:30:01;37.20;28.20
40534;DHT22;26233;51.894;10.192;2023-09-07T12:32:34;37.20;28.40
40534;DHT22;26233;51.894;10.192;2023-09-07T12:35:01;37.20;28.20
40534;DHT22;26233;51.894;10.192;2023-09-07T12:37:28;37.20;28.20
40534;DHT22;26233;51.894;10.192;2023-09-07T12:39:55;37.30;28.40
40534;DHT22;26233;51.894;10.192;2023-09-07T12:42:22;37.30;28.40
40534;DHT22;26233;51.894;10.192;2023-09-07T12:44:51;37.30;28.50
40534;DHT22;26233;51.894;10.192;2023-09-07T12:47:18;37.30;28.40
40534;DHT22;26233;51.894;10.192;2023-09-07T12:49:45;37.30;28.30
40534;DHT22;26233;51.894;10.192;2023-09-07T12:52:13;37.30;28.20
40534;DHT22;26233;51.894;10.192;2023-09-07T12:54:40;37.20;28.20
40534;DHT22;26233;51.894;10.192;2023-09-07T12:57:07;37.10;28.10
40534;DHT22;26233;51.894;10.192;2023-09-07T12:59:34;37.00;28.10
40534;DHT22;26233;51.894;10.192;2023-09-07T13:02:03;36.90;28.30
40534;DHT22;26233;51.894;10.192;2023-09-07T13:04:30;36.80;28.30
40534;DHT22;26233;51.894;10.192;2023-09-07T13:06:57;36.80;28.40
40534;DHT22;26233;51.894;10.192;2023-09-07T13:09:26;36.80;28.30
40534;DHT22;26233;51.894;10.192;2023-09-07T13:11:53;36.70;28.30
40534;DHT22;26233;51.894;10.192;2023-09-07T13:14:20;36.60;28.30
40534;DHT22;26233;51.894;10.192;2023-09-07T13:16:47;36.60;28.80
40534;DHT22;26233;51.894;10.192;2023-09-07T13:19:17;36.50;28.40
40534;DHT22;26233;51.894;10.192;2023-09-07T13:21:44;36.40;28.40
40534;DHT22;26233;51.894;10.192;2023-09-07T13:24:11;36.40;28.30
40534;DHT22;26233;51.894;10.192;2023-09-07T13:26:40;36.30;28.50
40534;DHT22;26233;51.894;10.192;2023-09-07T13:29:07;36.20;28.40
40534;DHT22;26233;51.894;10.192;2023-09-07T13:31:34;36.20;28.40
40534;DHT22;26233;51.894;10.192;2023-09-07T13:34:02;36.20;28.40
40534;DHT22;26233;51.894;10.192;2023-09-07T13:36:30;36.20;28.40
40534;DHT22;26233;51.894;10.192;2023-09-07T13:38:57;36.10;28.50
40534;DHT22;26233;51.894;10.192;2023-09-07T13:41:25;36.10;28.60
40534;DHT22;26233;51.894;10.192;2023-09-07T13:43:52;36.20;28.50
40534;DHT22;26233;51.894;10.192;2023-09-07T13:46:20;36.10;28.30
40534;DHT22;26233;51.894;10.192;2023-09-07T13:48:52;36.10;29.00
40534;DHT22;26233;51.894;10.192;2023-09-07T13:51:19;36.00;28.30
40534;DHT22;26233;51.894;10.192;2023-09-07T13:53:48;36.00;28.20
40534;DHT22;26233;51.894;10.192;2023-09-07T13:56:15;35.90;28.00
40534;DHT22;26233;51.894;10.192;2023-09-07T13:58:42;35.80;28.00
40534;DHT22;26233;51.894;10.192;2023-09-07T14:01:09;35.70;27.90
40534;DHT22;26233;51.894;10.192;2023-09-07T14:03:36;35.60;28.10
40534;DHT22;26233;51.894;10.192;2023-09-07T14:06:03;35.40;28.20
40534;DHT22;26233;51.894;10.192;2023-09-07T14:08:31;35.40;28.30
40534;DHT22;26233;51.894;10.192;2023-09-07T14:11:01;35.30;28.30
40534;DHT22;26233;51.894;10.192;2023-09-07T14:13:31;35.30;28.40
40534;DHT22;26233;51.894;10.192;2023-09-07T14:15:59;35.20;28.40
40534;DHT22;26233;51.894;10.192;2023-09-07T14:18:26;35.10;28.40
40534;DHT22;26233;51.894;10.192;2023-09-07T14:20:54;35.10;28.50
40534;DHT22;26233;51.894;10.192;2023-09-07T14:23:23;35.00;28.40
40534;DHT22;26233;51.894;10.192;2023-09-07T14:25:51;35.00;28.70
40534;DHT22;26233;51.894;10.192;2023-09-07T14:28:19;35.00;28.70
40534;DHT22;26233;51.894;10.192;2023-09-07T14:30:46;34.90;28.60
40534;DHT22;26233;51.894;10.192;2023-09-07T14:33:14;34.90;28.50
40534;DHT22;26233;51.894;10.192;2023-09-07T14:35:41;34.90;28.40
40534;DHT22;26233;51.894;10.192;2023-09-07T14:38:08;34.90;28.60
40534;DHT22;26233;51.894;10.192;2023-09-07T14:40:35;34.90;28.60
40534;DHT22;26233;51.894;10.192;2023-09-07T14:43:03;34.80;28.40
40534;DHT22;26233;51.894;10.192;2023-09-07T14:45:32;34.80;28.60
40534;DHT22;26233;51.894;10.192;2023-09-07T14:47:59;34.80;28.40
40534;DHT22;26233;51.894;10.192;2023-09-07T14:50:26;34.70;28.40
40534;DHT22;26233;51.894;10.192;2023-09-07T14:52:53;34.60;28.30
40534;DHT22;26233;51.894;10.192;2023-09-07T14:55:21;34.60;28.50
40534;DHT22;26233;51.894;10.192;2023-09-07T14:57:48;34.50;28.40
40534;DHT22;26233;51.894;10.192;2023-09-07T15:00:16;34.40;28.40
40534;DHT22;26233;51.894;10.192;2023-09-07T15:02:44;34.30;28.40
40534;DHT22;26233;51.894;10.192;2023-09-07T15:05:11;34.20;28.40
40534;DHT22;26233;51.894;10.192;2023-09-07T15:07:38;34.10;28.50
40534;DHT22;26233;51.894;10.192;2023-09-07T15:10:06;34.10;28.50
40534;DHT22;26233;51.894;10.192;2023-09-07T15:12:33;34.00;28.50
40534;DHT22;26233;51.894;10.192;2023-09-07T15:15:00;34.00;28.60
40534;DHT22;26233;51.894;10.192;2023-09-07T15:17:28;33.90;28.50
40534;DHT22;26233;51.894;10.192;2023-09-07T15:19:56;33.80;28.40
40534;DHT22;26233;51.894;10.192;2023-09-07T15:22:23;33.70;28.60
40534;DHT22;26233;51.894;10.192;2023-09-07T15:24:51;33.60;28.60